createdAt,value
2023-02-11T00:00:41.105Z,47.58
2023-02-11T00:02:47.722Z,41.72
2023-02-11T00:04:51.048Z,39.30
2023-02-11T00:06:56.209Z,39.90
2023-02-11T00:08:59.575Z,37.80
2023-02-11T00:11:02.719Z,33.92
2023-02-11T00:13:05.737Z,36.85
2023-02-11T00:15:09.767Z,38.58
2023-02-11T00:17:12.814Z,42.63
2023-02-11T00:19:15.964Z,36.50
2023-02-11T00:21:21.303Z,37.83
2023-02-11T00:23:25.759Z,36.83
2023-02-11T00:25:28.918Z,35.10
2023-02-11T00:27:32.074Z,42.25
2023-02-11T00:29:35.382Z,41.67
2023-02-11T00:31:39.779Z,36.60
2023-02-11T00:33:43.437Z,36.92
2023-02-11T00:35:46.658Z,39.17
2023-02-11T00:37:49.732Z,38.58
2023-02-11T00:39:54.247Z,41.58
2023-02-11T00:41:57.424Z,43.30
2023-02-11T00:44:00.679Z,49.95
2023-02-11T00:46:04.158Z,61.72
2023-02-11T00:48:07.550Z,54.95
2023-02-11T00:50:10.726Z,53.70
2023-02-11T00:52:13.790Z,46.70
2023-02-11T00:54:16.845Z,43.72
2023-02-11T00:56:21.402Z,44.45
2023-02-11T00:58:25.433Z,40.97
2023-02-11T01:00:28.581Z,42.25
2023-02-11T01:02:31.638Z,38.33
2023-02-11T01:04:34.764Z,40.85
2023-02-11T01:06:37.874Z,35.35
2023-02-11T01:08:41.889Z,37.92
2023-02-11T01:10:45.009Z,38.53
2023-02-11T01:12:49.464Z,41.65
2023-02-11T01:14:52.510Z,42.05
2023-02-11T01:16:55.847Z,42.83
2023-02-11T01:18:59.524Z,38.40
2023-02-11T01:21:02.583Z,36.05
2023-02-11T01:23:05.863Z,40.70
2023-02-11T01:25:09.386Z,39.13
2023-02-11T01:27:12.453Z,38.42
2023-02-11T01:29:16.901Z,39.97
2023-02-11T01:31:19.901Z,38.97
2023-02-11T01:33:23.518Z,38.67
2023-02-11T01:35:26.575Z,33.22
2023-02-11T01:37:29.586Z,36.78
2023-02-11T01:39:34.989Z,38.80
2023-02-11T01:41:38.126Z,37.45
2023-02-11T01:43:43.143Z,37.25
2023-02-11T01:46:08.031Z,41.90
2023-02-11T01:48:13.762Z,41.33
2023-02-11T01:50:17.069Z,35.65
2023-02-11T01:52:23.817Z,36.42
2023-02-11T01:54:47.642Z,36.70
2023-02-11T01:57:11.831Z,40.25
2023-02-11T01:59:19.921Z,35.55
2023-02-11T02:01:26.169Z,37.47
2023-02-11T02:03:30.054Z,38.85
2023-02-11T02:05:36.186Z,36.88
2023-02-11T02:07:44.070Z,36.78
2023-02-11T02:09:51.173Z,42.55
2023-02-11T02:11:54.465Z,37.65
2023-02-11T02:13:57.549Z,42.55
2023-02-11T02:16:02.202Z,44.33
2023-02-11T02:18:21.380Z,41.47
2023-02-11T02:21:01.009Z,36.72
2023-02-11T02:23:26.708Z,37.20
2023-02-11T02:25:42.418Z,39.90
2023-02-11T02:27:53.336Z,40.65
2023-02-11T02:30:18.080Z,37.78
2023-02-11T02:32:31.471Z,38.50
2023-02-11T02:34:39.115Z,37.17
2023-02-11T02:36:45.207Z,38.22
2023-02-11T02:38:54.349Z,40.00
2023-02-11T02:41:00.814Z,35.13
2023-02-11T02:43:04.534Z,34.95
2023-02-11T02:45:09.196Z,41.78
2023-02-11T02:47:12.164Z,38.78
2023-02-11T02:49:18.381Z,44.72
2023-02-11T02:51:32.738Z,38.38
2023-02-11T02:53:45.313Z,36.72
2023-02-11T02:56:01.571Z,36.05
2023-02-11T02:58:20.391Z,40.15
2023-02-11T03:00:26.849Z,37.03
2023-02-11T03:02:32.839Z,37.53
2023-02-11T03:04:41.611Z,38.42
2023-02-11T03:06:49.874Z,35.08
2023-02-11T03:08:58.769Z,37.50
2023-02-11T03:11:02.945Z,44.03
2023-02-11T03:13:06.505Z,40.33
2023-02-11T03:15:10.600Z,38.47
2023-02-11T03:17:15.501Z,32.28
2023-02-11T03:19:21.127Z,38.25
2023-02-11T03:21:26.081Z,45.65
2023-02-11T03:23:30.716Z,38.30
2023-02-11T03:25:37.456Z,36.45
2023-02-11T03:27:44.918Z,37.03
2023-02-11T03:29:54.220Z,37.53
2023-02-11T03:32:02.280Z,33.55
2023-02-11T03:34:09.724Z,37.33
2023-02-11T03:36:17.718Z,36.17
2023-02-11T03:38:23.887Z,38.38
2023-02-11T03:40:28.977Z,38.08
2023-02-11T03:42:35.656Z,38.90
2023-02-11T03:44:42.063Z,42.53
2023-02-11T03:46:49.540Z,38.65
2023-02-11T03:48:53.740Z,39.90
2023-02-11T03:50:58.422Z,34.03
2023-02-11T03:53:03.055Z,38.78
2023-02-11T03:55:11.120Z,36.17
2023-02-11T03:57:14.137Z,37.58
2023-02-11T03:59:17.169Z,37.83
2023-02-11T04:01:20.237Z,32.80
2023-02-11T04:03:23.338Z,36.10
2023-02-11T04:05:26.392Z,35.58
2023-02-11T04:07:29.626Z,34.20
2023-02-11T04:09:33.055Z,39.50
2023-02-11T04:11:37.644Z,34.75
2023-02-11T04:13:40.728Z,37.17
2023-02-11T04:15:43.828Z,38.70
2023-02-11T04:17:46.933Z,36.83
2023-02-11T04:19:50.044Z,37.35
2023-02-11T04:21:53.073Z,39.42
2023-02-11T04:23:56.135Z,36.80
2023-02-11T04:25:59.797Z,36.20
2023-02-11T04:28:04.279Z,33.47
2023-02-11T04:30:08.779Z,35.72
2023-02-11T04:32:12.364Z,36.42
2023-02-11T04:34:15.513Z,36.70
2023-02-11T04:36:18.586Z,36.42
2023-02-11T04:38:24.083Z,35.50
2023-02-11T04:40:27.178Z,32.92
2023-02-11T04:42:30.198Z,35.95
2023-02-11T04:44:34.672Z,39.58
2023-02-11T04:46:37.803Z,33.25
2023-02-11T04:48:40.899Z,34.90
2023-02-11T04:50:43.992Z,33.35
2023-02-11T04:52:46.930Z,33.47
2023-02-11T04:54:50.053Z,34.17
2023-02-11T04:56:53.081Z,35.80
2023-02-11T04:58:56.083Z,36.33
2023-02-11T05:01:08.184Z,31.75
2023-02-11T05:03:11.380Z,36.33
2023-02-11T05:05:14.459Z,34.95
2023-02-11T05:07:17.472Z,34.58
2023-02-11T05:09:20.557Z,34.00
2023-02-11T05:11:25.488Z,35.83
2023-02-11T05:13:28.606Z,41.67
2023-02-11T05:15:31.744Z,36.83
2023-02-11T05:17:38.389Z,37.40
2023-02-11T05:19:42.715Z,37.90
2023-02-11T05:22:01.347Z,35.15
2023-02-11T05:24:05.567Z,34.65
2023-02-11T05:26:09.141Z,37.63
2023-02-11T05:28:12.196Z,37.10
2023-02-11T05:30:15.576Z,32.05
2023-02-11T05:32:18.660Z,33.05
2023-02-11T05:34:23.097Z,35.78
2023-02-11T05:36:26.113Z,33.40
2023-02-11T05:38:29.388Z,36.20
2023-02-11T05:40:32.476Z,36.42
2023-02-11T05:42:35.537Z,35.40
2023-02-11T05:44:38.838Z,35.60
2023-02-11T05:46:41.961Z,33.40
2023-02-11T05:48:45.120Z,39.97
2023-02-11T05:50:49.514Z,39.22
2023-02-11T05:52:52.525Z,37.55
2023-02-11T05:54:55.811Z,37.75
2023-02-11T05:56:58.856Z,37.15
2023-02-11T05:59:01.902Z,36.88
2023-02-11T06:01:05.188Z,34.63
2023-02-11T06:03:08.231Z,36.55
2023-02-11T06:05:11.354Z,32.65
2023-02-11T06:07:15.773Z,31.08
2023-02-11T06:09:18.725Z,35.47
2023-02-11T06:11:21.721Z,35.92
2023-02-11T06:13:24.812Z,35.58
2023-02-11T06:15:29.864Z,35.08
2023-02-11T06:17:33.782Z,39.97
2023-02-11T06:19:37.072Z,36.05
2023-02-11T06:21:44.199Z,37.33
2023-02-11T06:23:49.133Z,34.40
2023-02-11T06:25:52.644Z,38.95
2023-02-11T06:27:56.239Z,36.00
2023-02-11T06:29:59.448Z,39.85
2023-02-11T06:32:02.681Z,38.35
2023-02-11T06:34:06.102Z,39.40
2023-02-11T06:36:14.646Z,39.00
2023-02-11T06:38:17.705Z,33.20
2023-02-11T06:40:22.130Z,34.42
2023-02-11T06:42:25.206Z,33.33
2023-02-11T06:44:28.336Z,33.28
2023-02-11T06:46:31.476Z,37.03
2023-02-11T06:48:34.863Z,33.90
2023-02-11T06:50:38.010Z,36.75
2023-02-11T06:52:41.537Z,36.53
2023-02-11T06:54:44.664Z,32.97
2023-02-11T06:56:49.205Z,32.78
2023-02-11T06:58:54.669Z,36.63
2023-02-11T07:00:57.861Z,38.58
2023-02-11T07:03:01.010Z,35.72
2023-02-11T07:05:04.285Z,37.05
2023-02-11T07:07:07.446Z,37.63
2023-02-11T07:09:10.721Z,45.83
2023-02-11T07:11:16.391Z,44.72
2023-02-11T07:13:20.863Z,46.28
2023-02-11T07:15:23.886Z,42.10
2023-02-11T07:17:26.962Z,47.15
2023-02-11T07:19:29.973Z,44.83
2023-02-11T07:21:33.146Z,44.92
2023-02-11T07:23:37.233Z,38.58
2023-02-11T07:25:40.352Z,45.72
2023-02-11T07:27:43.426Z,43.28
2023-02-11T07:29:48.654Z,38.83
2023-02-11T07:31:51.768Z,41.30
2023-02-11T07:33:55.912Z,43.55
2023-02-11T07:36:01.380Z,39.90
2023-02-11T07:38:04.386Z,41.25
2023-02-11T07:40:08.299Z,43.67
2023-02-11T07:42:11.326Z,46.47
2023-02-11T07:44:14.382Z,43.38
2023-02-11T07:46:20.288Z,46.55
2023-02-11T07:48:23.332Z,46.55
2023-02-11T07:50:26.475Z,41.45
2023-02-11T07:52:30.780Z,46.25
2023-02-11T07:54:33.832Z,51.90
2023-02-11T07:56:37.003Z,40.60
2023-02-11T07:58:42.105Z,43.20
2023-02-11T08:00:45.798Z,41.40
2023-02-11T08:02:50.369Z,40.25
2023-02-11T08:04:53.415Z,38.28
2023-02-11T08:06:58.956Z,39.92
2023-02-11T08:09:05.769Z,39.30
2023-02-11T08:11:09.420Z,44.85
2023-02-11T08:13:12.538Z,45.80
2023-02-11T08:15:17.191Z,47.03
2023-02-11T08:17:20.346Z,47.78
2023-02-11T08:19:24.816Z,46.13
2023-02-11T08:21:28.433Z,44.17
2023-02-11T08:23:31.532Z,51.78
2023-02-11T08:25:34.603Z,47.17
2023-02-11T08:27:37.729Z,51.70
2023-02-11T08:29:40.838Z,48.40
2023-02-11T08:31:46.606Z,48.72
2023-02-11T08:33:50.126Z,47.47
2023-02-11T08:35:54.864Z,54.17
2023-02-11T08:37:58.054Z,45.63
2023-02-11T08:40:01.366Z,43.55
2023-02-11T08:42:04.837Z,47.38
2023-02-11T08:44:08.019Z,36.75
2023-02-11T08:46:11.721Z,44.75
2023-02-11T08:48:14.872Z,40.78
2023-02-11T08:50:18.135Z,50.60
2023-02-11T08:52:22.684Z,48.05
2023-02-11T08:54:25.933Z,46.45
2023-02-11T08:56:31.384Z,44.28
2023-02-11T08:58:34.608Z,43.90
2023-02-11T09:00:37.831Z,39.00
2023-02-11T09:02:41.006Z,40.00
2023-02-11T09:04:44.104Z,42.10
2023-02-11T09:06:47.343Z,40.33
2023-02-11T09:08:53.737Z,36.75
2023-02-11T09:10:57.693Z,41.53
2023-02-11T09:13:01.023Z,40.42
2023-02-11T09:15:04.038Z,34.10
2023-02-11T09:17:07.183Z,33.63
2023-02-11T09:19:10.680Z,36.28
2023-02-11T09:21:14.480Z,33.50
2023-02-11T09:23:18.635Z,31.10
2023-02-11T09:25:22.950Z,32.83
2023-02-11T09:27:25.996Z,31.65
2023-02-11T09:29:29.161Z,28.70
2023-02-11T09:31:33.668Z,29.60
2023-02-11T09:33:37.047Z,29.90
2023-02-11T09:35:41.083Z,33.33
2023-02-11T09:37:44.044Z,31.40
2023-02-11T09:39:47.200Z,33.97
2023-02-11T09:42:08.438Z,35.33
2023-02-11T09:44:19.580Z,31.95
2023-02-11T09:46:23.063Z,34.17
2023-02-11T09:48:26.247Z,38.50
2023-02-11T09:50:32.262Z,37.30
2023-02-11T09:52:39.277Z,33.03
2023-02-11T09:54:50.737Z,28.25
2023-02-11T09:56:53.895Z,28.90
2023-02-11T09:58:58.357Z,29.65
2023-02-11T10:01:06.816Z,29.10
2023-02-11T10:03:21.632Z,28.65
2023-02-11T10:05:34.903Z,26.60
2023-02-11T10:07:41.855Z,25.80
2023-02-11T10:10:01.905Z,27.95
2023-02-11T10:12:16.970Z,27.80
2023-02-11T10:14:30.243Z,25.98
2023-02-11T10:16:43.184Z,28.92
2023-02-11T10:19:05.290Z,30.35
2023-02-11T10:21:16.566Z,35.92
2023-02-11T10:23:22.574Z,29.02
2023-02-11T10:25:27.952Z,24.10
2023-02-11T10:27:35.055Z,24.50
2023-02-11T10:29:42.064Z,29.35
2023-02-11T10:31:46.227Z,27.20
2023-02-11T10:33:54.797Z,26.70
2023-02-11T10:35:58.091Z,26.88
2023-02-11T10:38:01.720Z,25.58
2023-02-11T10:40:05.484Z,20.40
2023-02-11T10:42:12.085Z,20.45
2023-02-11T10:44:24.801Z,22.52
2023-02-11T10:46:33.585Z,20.55
2023-02-11T10:48:40.290Z,20.90
2023-02-11T10:50:43.482Z,19.95
2023-02-11T10:52:46.570Z,19.38
2023-02-11T10:55:01.424Z,19.25
2023-02-11T10:57:04.847Z,18.75
2023-02-11T10:59:14.841Z,18.85
2023-02-11T11:01:24.376Z,18.05
2023-02-11T11:03:33.385Z,24.80
2023-02-11T11:05:38.446Z,21.42
2023-02-11T11:07:53.138Z,17.13
2023-02-11T11:09:59.678Z,14.68
2023-02-11T11:12:02.809Z,20.73
2023-02-11T11:14:06.046Z,21.33
2023-02-11T11:16:22.302Z,17.70
2023-02-11T11:18:25.440Z,19.42
2023-02-11T11:20:35.353Z,17.33
2023-02-11T11:22:39.219Z,18.63
2023-02-11T11:24:46.731Z,19.30
2023-02-11T11:26:52.845Z,21.00
2023-02-11T11:28:59.095Z,20.20
2023-02-11T11:31:02.509Z,25.20
2023-02-11T11:33:05.767Z,20.10
2023-02-11T11:35:23.129Z,19.30
2023-02-11T11:37:29.418Z,16.37
2023-02-11T11:39:34.321Z,19.97
2023-02-11T11:41:37.479Z,19.33
2023-02-11T11:43:40.715Z,20.65
2023-02-11T11:45:55.542Z,20.95
2023-02-11T11:48:01.109Z,22.33
2023-02-11T11:50:17.705Z,22.02
2023-02-11T11:52:42.939Z,21.73
2023-02-11T11:54:50.463Z,17.15
2023-02-11T11:56:57.265Z,20.65
2023-02-11T11:59:01.999Z,19.42
2023-02-11T12:01:16.470Z,21.13
2023-02-11T12:03:59.944Z,18.97
2023-02-11T12:06:14.574Z,18.10
2023-02-11T12:08:24.990Z,19.40
2023-02-11T12:10:42.413Z,21.50
2023-02-11T12:12:50.289Z,21.20
2023-02-11T12:15:00.184Z,20.05
2023-02-11T12:17:07.818Z,19.27
2023-02-11T12:19:26.625Z,18.10
2023-02-11T12:21:36.154Z,21.85
2023-02-11T12:23:47.603Z,19.00
2023-02-11T12:25:55.575Z,20.90
2023-02-11T12:28:18.087Z,19.80
2023-02-11T12:30:35.594Z,23.30
2023-02-11T12:32:46.206Z,17.63
2023-02-11T12:35:18.551Z,20.40
2023-02-11T12:37:31.468Z,20.27
2023-02-11T12:39:45.478Z,21.58
2023-02-11T12:42:21.343Z,19.50
2023-02-11T12:44:30.804Z,20.50
2023-02-11T12:46:39.106Z,25.03
2023-02-11T12:48:57.752Z,20.00
2023-02-11T12:51:06.623Z,25.65
2023-02-11T12:53:23.777Z,21.73
2023-02-11T12:55:29.705Z,20.27
2023-02-11T12:57:34.573Z,20.10
2023-02-11T12:59:45.681Z,24.45
2023-02-11T13:01:50.125Z,21.20
2023-02-11T13:03:56.036Z,22.85
2023-02-11T13:06:02.101Z,22.70
2023-02-11T13:08:10.196Z,23.70
2023-02-11T13:10:23.667Z,21.87
2023-02-11T13:12:46.294Z,21.73
2023-02-11T13:14:51.210Z,20.88
2023-02-11T13:16:54.697Z,21.77
2023-02-11T13:19:03.787Z,21.73
2023-02-11T13:21:21.035Z,21.50
2023-02-11T13:23:29.969Z,24.70
2023-02-11T13:25:37.874Z,23.25
2023-02-11T13:27:45.425Z,22.80
2023-02-11T13:30:15.840Z,23.63
2023-02-11T13:32:18.967Z,21.87
2023-02-11T13:34:25.969Z,20.83
2023-02-11T13:36:30.269Z,21.60
2023-02-11T13:38:33.957Z,23.43
2023-02-11T13:40:38.554Z,22.97
2023-02-11T13:42:51.654Z,20.40
2023-02-11T13:44:55.326Z,22.92
2023-02-11T13:47:01.384Z,21.00
2023-02-11T13:49:04.558Z,23.90
2023-02-11T13:51:09.517Z,21.97
2023-02-11T13:53:15.061Z,22.70
2023-02-11T13:55:23.422Z,20.77
2023-02-11T13:57:36.449Z,19.30
2023-02-11T13:59:48.477Z,22.10
2023-02-11T14:02:23.841Z,20.70
2023-02-11T14:04:47.373Z,18.33
2023-02-11T14:07:42.960Z,21.10
2023-02-11T14:09:46.135Z,19.70
2023-02-11T14:11:51.377Z,21.50
2023-02-11T14:14:15.425Z,18.63
2023-02-11T14:16:36.469Z,22.00
2023-02-11T14:19:01.857Z,21.83
2023-02-11T14:21:13.150Z,21.83
2023-02-11T14:23:25.720Z,24.80
2023-02-11T14:25:28.971Z,21.87
2023-02-11T14:27:37.565Z,23.73
2023-02-11T14:29:45.338Z,20.40
2023-02-11T14:31:56.191Z,24.90
2023-02-11T14:34:07.743Z,22.93
2023-02-11T14:36:21.278Z,21.13
2023-02-11T14:38:29.492Z,27.93
2023-02-11T14:40:35.269Z,23.07
2023-02-11T14:42:39.496Z,23.43
2023-02-11T14:44:43.062Z,24.23
2023-02-11T14:46:47.214Z,24.03
2023-02-11T14:48:53.793Z,24.77
2023-02-11T14:51:01.881Z,23.50
2023-02-11T14:53:06.281Z,23.20
2023-02-11T14:55:18.066Z,23.77
2023-02-11T14:57:21.973Z,19.80
2023-02-11T14:59:25.010Z,23.30
2023-02-11T15:01:31.832Z,21.73
2023-02-11T15:03:36.974Z,19.90
2023-02-11T15:05:41.587Z,22.80
2023-02-11T15:07:46.817Z,18.50
2023-02-11T15:09:52.046Z,19.30
2023-02-11T15:11:55.579Z,21.88
2023-02-11T15:14:01.183Z,23.17
2023-02-11T15:16:08.089Z,23.00
2023-02-11T15:18:21.388Z,27.35
2023-02-11T15:20:28.121Z,23.38
2023-02-11T15:22:36.538Z,22.08
2023-02-11T15:24:40.593Z,30.80
2023-02-11T15:26:43.701Z,26.63
2023-02-11T15:28:51.928Z,21.23
2023-02-11T15:30:59.615Z,25.83
2023-02-11T15:33:05.864Z,27.00
2023-02-11T15:35:13.678Z,24.70
2023-02-11T15:37:21.803Z,24.90
2023-02-11T15:39:34.277Z,22.03
2023-02-11T15:41:38.785Z,21.27
2023-02-11T15:43:43.470Z,21.60
2023-02-11T15:45:56.160Z,23.97
2023-02-11T15:48:01.373Z,21.50
2023-02-11T15:50:04.665Z,21.55
2023-02-11T15:52:08.945Z,20.58
2023-02-11T15:54:18.458Z,22.30
2023-02-11T15:56:25.795Z,20.95
2023-02-11T15:58:28.989Z,22.58
2023-02-11T16:00:36.280Z,20.93
2023-02-11T16:02:45.132Z,29.67
2023-02-11T16:04:53.415Z,28.20
2023-02-11T16:06:57.126Z,27.53
2023-02-11T16:09:02.448Z,29.80
2023-02-11T16:11:09.101Z,25.03
2023-02-11T16:13:20.816Z,24.00
2023-02-11T16:15:43.303Z,28.50
2023-02-11T16:17:46.481Z,26.97
2023-02-11T16:19:51.193Z,29.53
2023-02-11T16:21:54.907Z,28.38
2023-02-11T16:23:58.785Z,30.02
2023-02-11T16:26:08.502Z,33.33
2023-02-11T16:28:15.223Z,35.08
2023-02-11T16:30:30.317Z,34.60
2023-02-11T16:32:33.475Z,37.92
2023-02-11T16:34:37.223Z,33.63
2023-02-11T16:36:40.420Z,33.42
2023-02-11T16:38:43.901Z,28.30
2023-02-11T16:40:49.357Z,31.08
2023-02-11T16:42:53.550Z,28.88
2023-02-11T16:44:56.744Z,25.25
2023-02-11T16:47:03.203Z,24.33
2023-02-11T16:49:11.602Z,23.67
2023-02-11T16:51:14.687Z,24.98
2023-02-11T16:53:22.675Z,24.77
2023-02-11T16:55:25.816Z,27.42
2023-02-11T16:57:30.440Z,27.95
2023-02-11T16:59:33.732Z,27.77
2023-02-11T17:01:37.489Z,29.20
2023-02-11T17:03:43.630Z,29.37
2023-02-11T17:05:55.326Z,29.63
2023-02-11T17:08:00.888Z,30.42
2023-02-11T17:10:04.067Z,29.52
2023-02-11T17:12:07.872Z,25.33
2023-02-11T17:14:11.152Z,31.93
2023-02-11T17:16:20.014Z,27.45
2023-02-11T17:18:23.270Z,32.50
2023-02-11T17:20:27.916Z,30.40
2023-02-11T17:22:31.075Z,29.50
2023-02-11T17:24:34.197Z,27.35
2023-02-11T17:26:37.344Z,30.88
2023-02-11T17:28:40.496Z,32.08
2023-02-11T17:30:44.182Z,30.50
2023-02-11T17:32:47.420Z,31.17
2023-02-11T17:34:50.555Z,33.40
2023-02-11T17:36:55.090Z,36.85
2023-02-11T17:38:58.874Z,40.63
2023-02-11T17:41:03.286Z,45.97
2023-02-11T17:43:06.686Z,48.38
2023-02-11T17:45:10.834Z,48.00
2023-02-11T17:47:14.056Z,38.93
2023-02-11T17:49:17.632Z,40.58
2023-02-11T17:51:24.778Z,38.50
2023-02-11T17:53:29.434Z,37.00
2023-02-11T17:55:34.134Z,36.95
2023-02-11T17:57:37.420Z,37.90
2023-02-11T17:59:41.002Z,38.60
2023-02-11T18:01:44.673Z,33.55
2023-02-11T18:03:47.975Z,39.70
2023-02-11T18:05:51.484Z,38.97
2023-02-11T18:07:55.869Z,58.67
2023-02-11T18:10:00.330Z,40.42
2023-02-11T18:12:03.490Z,32.63
2023-02-11T18:14:07.909Z,32.50
2023-02-11T18:16:15.546Z,32.97
2023-02-11T18:18:18.845Z,30.47
2023-02-11T18:20:22.175Z,33.30
2023-02-11T18:22:25.916Z,33.03
2023-02-11T18:24:28.994Z,31.38
2023-02-11T18:26:33.551Z,29.83
2023-02-11T18:28:36.725Z,41.33
2023-02-11T18:30:39.976Z,45.05
2023-02-11T18:32:43.147Z,54.67
2023-02-11T18:34:46.272Z,51.30
2023-02-11T18:36:49.900Z,36.33
2023-02-11T18:38:54.309Z,34.55
2023-02-11T18:40:58.749Z,36.50
2023-02-11T18:43:03.324Z,32.65
2023-02-11T18:45:09.377Z,38.40
2023-02-11T18:47:12.588Z,40.42
2023-02-11T18:49:16.185Z,35.13
2023-02-11T18:51:19.697Z,40.92
2023-02-11T18:53:23.285Z,39.55
2023-02-11T18:55:26.518Z,40.80
2023-02-11T18:57:29.717Z,40.80
2023-02-11T18:59:34.574Z,43.30
2023-02-11T19:01:40.005Z,43.05
2023-02-11T19:03:43.426Z,39.67
2023-02-11T19:05:48.335Z,36.28
2023-02-11T19:07:51.548Z,38.97
2023-02-11T19:09:54.964Z,41.60
2023-02-11T19:11:59.839Z,38.95
2023-02-11T19:14:10.129Z,38.13
2023-02-11T19:16:16.827Z,37.97
2023-02-11T19:18:19.953Z,39.22
2023-02-11T19:20:22.978Z,37.80
2023-02-11T19:22:26.080Z,35.65
2023-02-11T19:24:30.409Z,38.97
2023-02-11T19:26:33.530Z,40.45
2023-02-11T19:28:37.476Z,36.88
2023-02-11T19:30:40.591Z,36.58
2023-02-11T19:32:45.148Z,39.35
2023-02-11T19:34:48.471Z,40.22
2023-02-11T19:36:51.760Z,40.65
2023-02-11T19:38:55.355Z,49.42
2023-02-11T19:40:58.811Z,145.93
2023-02-11T19:43:02.024Z,48.28
2023-02-11T19:45:07.332Z,45.75
2023-02-11T19:47:12.604Z,41.42
2023-02-11T19:49:22.820Z,43.05
2023-02-11T19:51:26.011Z,38.42
2023-02-11T19:53:29.150Z,40.45
2023-02-11T19:55:32.425Z,38.28
2023-02-11T19:57:35.596Z,41.78
2023-02-11T19:59:38.788Z,37.90
2023-02-11T20:01:42.502Z,37.75
2023-02-11T20:03:47.319Z,40.38
2023-02-11T20:05:51.992Z,37.92
2023-02-11T20:07:55.388Z,39.05
2023-02-11T20:09:58.773Z,40.13
2023-02-11T20:12:01.946Z,39.20
2023-02-11T20:14:06.727Z,39.88
2023-02-11T20:16:12.432Z,38.30
2023-02-11T20:18:15.618Z,37.38
2023-02-11T20:20:19.102Z,36.10
2023-02-11T20:22:23.522Z,41.88
2023-02-11T20:24:27.198Z,42.67
2023-02-11T20:26:31.571Z,43.20
2023-02-11T20:28:34.721Z,41.10
2023-02-11T20:30:39.150Z,44.20
2023-02-11T20:32:42.270Z,42.08
2023-02-11T20:34:45.427Z,40.67
2023-02-11T20:36:51.962Z,40.67
2023-02-11T20:38:56.834Z,38.15
2023-02-11T20:41:04.127Z,42.33
2023-02-11T20:43:07.324Z,41.67
2023-02-11T20:45:10.756Z,41.58
2023-02-11T20:47:13.887Z,42.90
2023-02-11T20:49:18.913Z,44.03
2023-02-11T20:51:24.796Z,39.47
2023-02-11T20:53:27.851Z,43.92
2023-02-11T20:55:32.313Z,44.85
2023-02-11T20:57:35.612Z,42.08
2023-02-11T20:59:38.769Z,39.40
2023-02-11T21:01:43.615Z,42.28
2023-02-11T21:03:50.844Z,40.40
2023-02-11T21:05:59.243Z,41.50
2023-02-11T21:08:02.260Z,40.22
2023-02-11T21:10:06.129Z,37.30
2023-02-11T21:12:10.611Z,34.67
2023-02-11T21:14:16.046Z,35.92
2023-02-11T21:16:21.357Z,35.78
2023-02-11T21:18:25.051Z,36.28
2023-02-11T21:20:28.089Z,32.15
2023-02-11T21:22:31.272Z,31.33
2023-02-11T21:24:34.393Z,32.53
2023-02-11T21:26:38.533Z,32.38
2023-02-11T21:28:43.033Z,34.72
2023-02-11T21:30:46.209Z,31.55
2023-02-11T21:32:49.339Z,31.55
2023-02-11T21:34:52.443Z,30.48
2023-02-11T21:36:55.561Z,29.40
2023-02-11T21:39:00.175Z,32.13
2023-02-11T21:41:06.994Z,32.92
2023-02-11T21:43:10.059Z,31.45
2023-02-11T21:45:14.579Z,38.33
2023-02-11T21:47:17.656Z,39.17
2023-02-11T21:49:21.427Z,38.20
2023-02-11T21:51:26.302Z,36.25
2023-02-11T21:53:29.378Z,34.17
2023-02-11T21:55:32.517Z,34.80
2023-02-11T21:57:35.662Z,39.40
2023-02-11T21:59:38.885Z,35.72
2023-02-11T22:01:43.359Z,37.22
2023-02-11T22:03:47.310Z,37.92
2023-02-11T22:05:50.400Z,40.50
2023-02-11T22:07:53.528Z,33.33
2023-02-11T22:09:56.599Z,45.20
2023-02-11T22:11:59.689Z,44.55
2023-02-11T22:14:02.701Z,43.47
2023-02-11T22:16:08.023Z,89.97
2023-02-11T22:18:12.660Z,78.53
2023-02-11T22:20:16.850Z,69.40
2023-02-11T22:22:19.925Z,54.72
2023-02-11T22:24:23.016Z,42.05
2023-02-11T22:26:27.765Z,37.75
2023-02-11T22:28:30.931Z,38.38
2023-02-11T22:30:34.194Z,35.65
2023-02-11T22:32:37.416Z,40.08
2023-02-11T22:34:41.866Z,41.80
2023-02-11T22:36:46.982Z,38.67
2023-02-11T22:38:50.360Z,40.47
2023-02-11T22:40:53.482Z,43.63
2023-02-11T22:42:56.651Z,40.63
2023-02-11T22:44:59.657Z,38.47
2023-02-11T22:47:02.654Z,45.10
2023-02-11T22:49:07.202Z,44.05
2023-02-11T22:51:13.376Z,52.72
2023-02-11T22:53:16.387Z,49.85
2023-02-11T22:55:19.519Z,50.65
2023-02-11T22:57:22.604Z,45.38
2023-02-11T22:59:25.744Z,36.55
2023-02-11T23:01:29.122Z,39.10
2023-02-11T23:03:32.868Z,39.40
2023-02-11T23:05:39.286Z,38.10
2023-02-11T23:07:43.652Z,33.22
2023-02-11T23:09:48.052Z,29.08
2023-02-11T23:11:54.357Z,30.50
2023-02-11T23:13:57.666Z,31.42
2023-02-11T23:16:00.747Z,28.20
2023-02-11T23:18:03.830Z,30.60
2023-02-11T23:20:08.019Z,33.10
2023-02-11T23:22:11.050Z,32.58
2023-02-11T23:24:16.080Z,31.13
2023-02-11T23:26:19.749Z,34.13
2023-02-11T23:28:23.002Z,33.22
2023-02-11T23:30:26.392Z,33.00
2023-02-11T23:32:29.496Z,37.70
2023-02-11T23:34:32.637Z,31.45
2023-02-11T23:36:35.886Z,27.40
2023-02-11T23:38:38.996Z,35.90
2023-02-11T23:40:43.701Z,29.27
2023-02-11T23:42:47.673Z,28.80
2023-02-11T23:44:50.782Z,32.28
2023-02-11T23:46:53.787Z,31.58
2023-02-11T23:48:56.865Z,31.35
2023-02-11T23:51:00.045Z,31.75
2023-02-11T23:53:03.119Z,28.70
2023-02-11T23:55:07.048Z,30.27
2023-02-11T23:57:11.576Z,32.08
2023-02-11T23:59:14.940Z,27.30
